sensor_id;sensor_type;location;lat;lon;timestamp;P1;durP1;ratioP1;P2;durP2;ratioP2
20679;SDS011;10499;47.494;7.608;2022-08-25T00:01:10;0.10;;;0.10;;
20679;SDS011;10499;47.494;7.608;2022-08-25T00:03:45;0.10;;;0.10;;
20679;SDS011;10499;47.494;7.608;2022-08-25T00:06:12;0.10;;;0.10;;
20679;SDS011;10499;47.494;7.608;2022-08-25T00:08:39;0.10;;;0.10;;
20679;SDS011;10499;47.494;7.608;2022-08-25T00:11:06;0.10;;;0.10;;
20679;SDS011;10499;47.494;7.608;2022-08-25T00:13:35;0.10;;;0.10;;
20679;SDS011;10499;47.494;7.608;2022-08-25T00:16:02;0.10;;;0.10;;
20679;SDS011;10499;47.494;7.608;2022-08-25T00:18:27;0.10;;;0.10;;
20679;SDS011;10499;47.494;7.608;2022-08-25T00:20:53;0.10;;;0.10;;
20679;SDS011;10499;47.494;7.608;2022-08-25T00:23:19;0.10;;;0.10;;
20679;SDS011;10499;47.494;7.608;2022-08-25T00:25:44;0.10;;;0.10;;
20679;SDS011;10499;47.494;7.608;2022-08-25T00:28:11;0.10;;;0.10;;
20679;SDS011;10499;47.494;7.608;2022-08-25T00:30:38;0.10;;;0.10;;
20679;SDS011;10499;47.494;7.608;2022-08-25T00:33:03;0.10;;;0.10;;
20679;SDS011;10499;47.494;7.608;2022-08-25T00:35:29;0.10;;;0.10;;
20679;SDS011;10499;47.494;7.608;2022-08-25T00:37:55;0.10;;;0.10;;
20679;SDS011;10499;47.494;7.608;2022-08-25T00:40:21;0.10;;;0.10;;
20679;SDS011;10499;47.494;7.608;2022-08-25T00:42:49;0.10;;;0.10;;
20679;SDS011;10499;47.494;7.608;2022-08-25T00:45:15;0.10;;;0.10;;
20679;SDS011;10499;47.494;7.608;2022-08-25T00:47:42;0.10;;;0.10;;
20679;SDS011;10499;47.494;7.608;2022-08-25T00:50:07;0.10;;;0.10;;
20679;SDS011;10499;47.494;7.608;2022-08-25T00:52:39;0.10;;;0.10;;
20679;SDS011;10499;47.494;7.608;2022-08-25T00:57:41;0.10;;;0.10;;
20679;SDS011;10499;47.494;7.608;2022-08-25T01:00:18;0.10;;;0.10;;
20679;SDS011;10499;47.494;7.608;2022-08-25T01:02:48;0.10;;;0.10;;
20679;SDS011;10499;47.494;7.608;2022-08-25T01:05:14;0.10;;;0.10;;
20679;SDS011;10499;47.494;7.608;2022-08-25T01:07:42;0.10;;;0.10;;
20679;SDS011;10499;47.494;7.608;2022-08-25T01:10:08;0.10;;;0.10;;
20679;SDS011;10499;47.494;7.608;2022-08-25T01:12:34;0.00;;;0.00;;
20679;SDS011;10499;47.494;7.608;2022-08-25T01:15:02;0.03;;;0.03;;
20679;SDS011;10499;47.494;7.608;2022-08-25T01:17:34;0.10;;;0.10;;
20679;SDS011;10499;47.494;7.608;2022-08-25T01:20:15;0.10;;;0.10;;
20679;SDS011;10499;47.494;7.608;2022-08-25T01:22:43;0.00;;;0.00;;
20679;SDS011;10499;47.494;7.608;2022-08-25T01:25:20;0.10;;;0.10;;
20679;SDS011;10499;47.494;7.608;2022-08-25T01:28:06;0.10;;;0.10;;
20679;SDS011;10499;47.494;7.608;2022-08-25T01:30:32;0.10;;;0.10;;
20679;SDS011;10499;47.494;7.608;2022-08-25T01:33:01;0.10;;;0.10;;
20679;SDS011;10499;47.494;7.608;2022-08-25T01:35:28;0.10;;;0.10;;
20679;SDS011;10499;47.494;7.608;2022-08-25T01:37:54;0.10;;;0.10;;
20679;SDS011;10499;47.494;7.608;2022-08-25T01:40:19;0.10;;;0.10;;
20679;SDS011;10499;47.494;7.608;2022-08-25T01:45:31;0.10;;;0.10;;
20679;SDS011;10499;47.494;7.608;2022-08-25T01:47:57;0.10;;;0.10;;
20679;SDS011;10499;47.494;7.608;2022-08-25T01:50:23;0.10;;;0.10;;
20679;SDS011;10499;47.494;7.608;2022-08-25T01:53:03;0.10;;;0.10;;
20679;SDS011;10499;47.494;7.608;2022-08-25T01:55:36;0.10;;;0.10;;
20679;SDS011;10499;47.494;7.608;2022-08-25T01:58:19;0.10;;;0.10;;
20679;SDS011;10499;47.494;7.608;2022-08-25T02:00:47;0.10;;;0.10;;
20679;SDS011;10499;47.494;7.608;2022-08-25T02:03:14;0.10;;;0.10;;
20679;SDS011;10499;47.494;7.608;2022-08-25T02:05:42;0.10;;;0.10;;
20679;SDS011;10499;47.494;7.608;2022-08-25T02:08:08;0.10;;;0.10;;
20679;SDS011;10499;47.494;7.608;2022-08-25T02:10:33;0.10;;;0.10;;
20679;SDS011;10499;47.494;7.608;2022-08-25T02:12:59;0.10;;;0.10;;
20679;SDS011;10499;47.494;7.608;2022-08-25T02:15:25;0.10;;;0.10;;
20679;SDS011;10499;47.494;7.608;2022-08-25T02:17:51;0.10;;;0.10;;
20679;SDS011;10499;47.494;7.608;2022-08-25T02:20:16;0.10;;;0.10;;
20679;SDS011;10499;47.494;7.608;2022-08-25T02:22:43;0.10;;;0.10;;
20679;SDS011;10499;47.494;7.608;2022-08-25T02:25:08;0.10;;;0.10;;
20679;SDS011;10499;47.494;7.608;2022-08-25T02:27:35;0.10;;;0.10;;
20679;SDS011;10499;47.494;7.608;2022-08-25T02:30:01;0.10;;;0.10;;
20679;SDS011;10499;47.494;7.608;2022-08-25T02:32:28;0.10;;;0.10;;
20679;SDS011;10499;47.494;7.608;2022-08-25T02:34:55;0.10;;;0.10;;
20679;SDS011;10499;47.494;7.608;2022-08-25T02:37:21;0.10;;;0.10;;
20679;SDS011;10499;47.494;7.608;2022-08-25T02:39:46;0.10;;;0.10;;
20679;SDS011;10499;47.494;7.608;2022-08-25T02:42:12;0.10;;;0.10;;
20679;SDS011;10499;47.494;7.608;2022-08-25T02:44:38;0.10;;;0.10;;
20679;SDS011;10499;47.494;7.608;2022-08-25T02:47:04;0.10;;;0.10;;
20679;SDS011;10499;47.494;7.608;2022-08-25T02:49:29;0.10;;;0.10;;
20679;SDS011;10499;47.494;7.608;2022-08-25T02:51:56;0.10;;;0.10;;
20679;SDS011;10499;47.494;7.608;2022-08-25T02:54:22;0.10;;;0.10;;
20679;SDS011;10499;47.494;7.608;2022-08-25T02:56:49;0.10;;;0.10;;
20679;SDS011;10499;47.494;7.608;2022-08-25T02:59:15;0.10;;;0.10;;
20679;SDS011;10499;47.494;7.608;2022-08-25T03:01:42;0.10;;;0.10;;
20679;SDS011;10499;47.494;7.608;2022-08-25T03:04:08;0.10;;;0.10;;
20679;SDS011;10499;47.494;7.608;2022-08-25T03:06:34;0.10;;;0.10;;
20679;SDS011;10499;47.494;7.608;2022-08-25T03:08:59;0.10;;;0.10;;
20679;SDS011;10499;47.494;7.608;2022-08-25T03:11:25;0.10;;;0.10;;
20679;SDS011;10499;47.494;7.608;2022-08-25T03:13:51;0.10;;;0.10;;
20679;SDS011;10499;47.494;7.608;2022-08-25T03:16:18;0.10;;;0.10;;
20679;SDS011;10499;47.494;7.608;2022-08-25T03:18:44;0.10;;;0.10;;
20679;SDS011;10499;47.494;7.608;2022-08-25T03:21:10;0.10;;;0.10;;
20679;SDS011;10499;47.494;7.608;2022-08-25T03:23:38;0.10;;;0.10;;
20679;SDS011;10499;47.494;7.608;2022-08-25T03:26:05;0.10;;;0.10;;
20679;SDS011;10499;47.494;7.608;2022-08-25T03:28:49;0.10;;;0.10;;
20679;SDS011;10499;47.494;7.608;2022-08-25T03:31:15;0.10;;;0.10;;
20679;SDS011;10499;47.494;7.608;2022-08-25T03:33:41;0.10;;;0.10;;
20679;SDS011;10499;47.494;7.608;2022-08-25T03:36:07;0.10;;;0.10;;
20679;SDS011;10499;47.494;7.608;2022-08-25T03:38:35;0.10;;;0.10;;
20679;SDS011;10499;47.494;7.608;2022-08-25T03:41:09;0.10;;;0.10;;
20679;SDS011;10499;47.494;7.608;2022-08-25T03:43:39;0.10;;;0.10;;
20679;SDS011;10499;47.494;7.608;2022-08-25T03:46:05;0.10;;;0.10;;
20679;SDS011;10499;47.494;7.608;2022-08-25T03:48:31;0.10;;;0.10;;
20679;SDS011;10499;47.494;7.608;2022-08-25T03:50:56;0.10;;;0.10;;
20679;SDS011;10499;47.494;7.608;2022-08-25T03:53:22;0.10;;;0.10;;
20679;SDS011;10499;47.494;7.608;2022-08-25T03:55:48;0.10;;;0.10;;
20679;SDS011;10499;47.494;7.608;2022-08-25T03:58:13;0.10;;;0.10;;
20679;SDS011;10499;47.494;7.608;2022-08-25T04:00:39;0.10;;;0.10;;
20679;SDS011;10499;47.494;7.608;2022-08-25T04:03:05;0.10;;;0.10;;
20679;SDS011;10499;47.494;7.608;2022-08-25T04:05:31;0.10;;;0.10;;
20679;SDS011;10499;47.494;7.608;2022-08-25T04:07:57;0.10;;;0.10;;
20679;SDS011;10499;47.494;7.608;2022-08-25T04:10:22;0.10;;;0.10;;
20679;SDS011;10499;47.494;7.608;2022-08-25T04:12:48;0.10;;;0.10;;
20679;SDS011;10499;47.494;7.608;2022-08-25T04:15:15;0.10;;;0.10;;
20679;SDS011;10499;47.494;7.608;2022-08-25T04:17:41;0.10;;;0.10;;
20679;SDS011;10499;47.494;7.608;2022-08-25T04:20:07;0.10;;;0.10;;
20679;SDS011;10499;47.494;7.608;2022-08-25T04:22:34;0.10;;;0.10;;
20679;SDS011;10499;47.494;7.608;2022-08-25T04:25:01;0.10;;;0.10;;
20679;SDS011;10499;47.494;7.608;2022-08-25T04:27:27;0.10;;;0.10;;
20679;SDS011;10499;47.494;7.608;2022-08-25T04:29:53;0.10;;;0.10;;
20679;SDS011;10499;47.494;7.608;2022-08-25T04:32:18;0.10;;;0.10;;
20679;SDS011;10499;47.494;7.608;2022-08-25T04:34:44;0.10;;;0.10;;
20679;SDS011;10499;47.494;7.608;2022-08-25T04:37:10;0.10;;;0.10;;
20679;SDS011;10499;47.494;7.608;2022-08-25T04:39:36;0.10;;;0.10;;
20679;SDS011;10499;47.494;7.608;2022-08-25T04:42:01;0.10;;;0.10;;
20679;SDS011;10499;47.494;7.608;2022-08-25T04:44:28;0.10;;;0.10;;
20679;SDS011;10499;47.494;7.608;2022-08-25T04:46:55;0.10;;;0.10;;
20679;SDS011;10499;47.494;7.608;2022-08-25T04:49:21;0.10;;;0.10;;
20679;SDS011;10499;47.494;7.608;2022-08-25T04:51:47;0.10;;;0.10;;
20679;SDS011;10499;47.494;7.608;2022-08-25T04:54:14;0.10;;;0.10;;
20679;SDS011;10499;47.494;7.608;2022-08-25T04:56:41;0.10;;;0.10;;
20679;SDS011;10499;47.494;7.608;2022-08-25T04:59:09;0.10;;;0.10;;
20679;SDS011;10499;47.494;7.608;2022-08-25T05:01:37;0.10;;;0.10;;
20679;SDS011;10499;47.494;7.608;2022-08-25T05:04:04;0.10;;;0.10;;
20679;SDS011;10499;47.494;7.608;2022-08-25T05:06:31;0.10;;;0.10;;
20679;SDS011;10499;47.494;7.608;2022-08-25T05:08:57;0.10;;;0.10;;
20679;SDS011;10499;47.494;7.608;2022-08-25T05:11:24;0.10;;;0.10;;
20679;SDS011;10499;47.494;7.608;2022-08-25T05:13:51;0.10;;;0.10;;
20679;SDS011;10499;47.494;7.608;2022-08-25T05:16:19;0.10;;;0.10;;
20679;SDS011;10499;47.494;7.608;2022-08-25T05:18:47;0.10;;;0.10;;
20679;SDS011;10499;47.494;7.608;2022-08-25T05:21:14;0.10;;;0.10;;
20679;SDS011;10499;47.494;7.608;2022-08-25T05:23:41;0.10;;;0.10;;
20679;SDS011;10499;47.494;7.608;2022-08-25T05:26:18;0.10;;;0.10;;
20679;SDS011;10499;47.494;7.608;2022-08-25T05:28:44;0.10;;;0.10;;
20679;SDS011;10499;47.494;7.608;2022-08-25T05:31:12;0.10;;;0.10;;
20679;SDS011;10499;47.494;7.608;2022-08-25T05:33:39;0.10;;;0.10;;
20679;SDS011;10499;47.494;7.608;2022-08-25T05:36:08;0.10;;;0.10;;
20679;SDS011;10499;47.494;7.608;2022-08-25T05:38:36;0.10;;;0.10;;
20679;SDS011;10499;47.494;7.608;2022-08-25T05:41:03;0.10;;;0.10;;
20679;SDS011;10499;47.494;7.608;2022-08-25T05:43:33;0.10;;;0.10;;
20679;SDS011;10499;47.494;7.608;2022-08-25T05:46:02;0.10;;;0.10;;
20679;SDS011;10499;47.494;7.608;2022-08-25T05:48:27;0.10;;;0.10;;
20679;SDS011;10499;47.494;7.608;2022-08-25T05:50:54;0.10;;;0.10;;
20679;SDS011;10499;47.494;7.608;2022-08-25T05:53:21;0.10;;;0.10;;
20679;SDS011;10499;47.494;7.608;2022-08-25T05:55:51;0.10;;;0.10;;
20679;SDS011;10499;47.494;7.608;2022-08-25T05:58:18;0.10;;;0.10;;
20679;SDS011;10499;47.494;7.608;2022-08-25T06:00:56;0.10;;;0.10;;
20679;SDS011;10499;47.494;7.608;2022-08-25T06:03:43;0.10;;;0.10;;
20679;SDS011;10499;47.494;7.608;2022-08-25T06:06:09;0.10;;;0.10;;
20679;SDS011;10499;47.494;7.608;2022-08-25T06:08:37;0.10;;;0.10;;
20679;SDS011;10499;47.494;7.608;2022-08-25T06:11:32;0.10;;;0.10;;
20679;SDS011;10499;47.494;7.608;2022-08-25T06:13:58;0.10;;;0.10;;
20679;SDS011;10499;47.494;7.608;2022-08-25T06:16:24;0.10;;;0.10;;
20679;SDS011;10499;47.494;7.608;2022-08-25T06:18:49;0.10;;;0.10;;
20679;SDS011;10499;47.494;7.608;2022-08-25T06:21:15;0.10;;;0.10;;
20679;SDS011;10499;47.494;7.608;2022-08-25T06:23:42;0.10;;;0.10;;
20679;SDS011;10499;47.494;7.608;2022-08-25T06:26:12;0.10;;;0.10;;
20679;SDS011;10499;47.494;7.608;2022-08-25T06:28:37;0.10;;;0.10;;
20679;SDS011;10499;47.494;7.608;2022-08-25T06:31:03;0.10;;;0.10;;
20679;SDS011;10499;47.494;7.608;2022-08-25T06:33:29;0.10;;;0.10;;
20679;SDS011;10499;47.494;7.608;2022-08-25T06:35:55;0.10;;;0.10;;
20679;SDS011;10499;47.494;7.608;2022-08-25T06:38:21;0.10;;;0.10;;
20679;SDS011;10499;47.494;7.608;2022-08-25T06:40:47;0.10;;;0.10;;
20679;SDS011;10499;47.494;7.608;2022-08-25T06:43:15;0.10;;;0.10;;
20679;SDS011;10499;47.494;7.608;2022-08-25T06:45:40;0.10;;;0.10;;
20679;SDS011;10499;47.494;7.608;2022-08-25T06:48:08;0.10;;;0.10;;
20679;SDS011;10499;47.494;7.608;2022-08-25T06:50:34;0.10;;;0.10;;
20679;SDS011;10499;47.494;7.608;2022-08-25T06:53:02;0.10;;;0.10;;
20679;SDS011;10499;47.494;7.608;2022-08-25T06:55:27;0.10;;;0.10;;
20679;SDS011;10499;47.494;7.608;2022-08-25T06:57:53;0.10;;;0.10;;
20679;SDS011;10499;47.494;7.608;2022-08-25T07:00:18;0.10;;;0.10;;
20679;SDS011;10499;47.494;7.608;2022-08-25T07:02:44;0.10;;;0.10;;
20679;SDS011;10499;47.494;7.608;2022-08-25T07:05:11;0.10;;;0.10;;
20679;SDS011;10499;47.494;7.608;2022-08-25T07:07:37;0.10;;;0.10;;
20679;SDS011;10499;47.494;7.608;2022-08-25T07:10:03;0.10;;;0.10;;
20679;SDS011;10499;47.494;7.608;2022-08-25T07:12:29;0.10;;;0.10;;
20679;SDS011;10499;47.494;7.608;2022-08-25T07:14:54;0.10;;;0.10;;
20679;SDS011;10499;47.494;7.608;2022-08-25T07:17:20;0.10;;;0.10;;
20679;SDS011;10499;47.494;7.608;2022-08-25T07:19:47;0.10;;;0.10;;
20679;SDS011;10499;47.494;7.608;2022-08-25T07:22:13;0.10;;;0.10;;
20679;SDS011;10499;47.494;7.608;2022-08-25T07:24:39;0.00;;;0.00;;
20679;SDS011;10499;47.494;7.608;2022-08-25T07:27:05;0.00;;;0.00;;
20679;SDS011;10499;47.494;7.608;2022-08-25T07:29:31;0.10;;;0.10;;
20679;SDS011;10499;47.494;7.608;2022-08-25T07:32:02;0.10;;;0.10;;
20679;SDS011;10499;47.494;7.608;2022-08-25T07:34:30;0.10;;;0.10;;
20679;SDS011;10499;47.494;7.608;2022-08-25T07:37:14;0.10;;;0.10;;
20679;SDS011;10499;47.494;7.608;2022-08-25T07:39:40;0.10;;;0.10;;
20679;SDS011;10499;47.494;7.608;2022-08-25T07:42:06;0.10;;;0.10;;
20679;SDS011;10499;47.494;7.608;2022-08-25T07:44:33;0.10;;;0.10;;
20679;SDS011;10499;47.494;7.608;2022-08-25T07:46:59;0.10;;;0.10;;
20679;SDS011;10499;47.494;7.608;2022-08-25T07:49:26;0.10;;;0.10;;
20679;SDS011;10499;47.494;7.608;2022-08-25T07:51:52;0.10;;;0.10;;
20679;SDS011;10499;47.494;7.608;2022-08-25T07:54:18;0.10;;;0.10;;
20679;SDS011;10499;47.494;7.608;2022-08-25T07:56:44;0.10;;;0.10;;
20679;SDS011;10499;47.494;7.608;2022-08-25T07:59:10;0.10;;;0.10;;
20679;SDS011;10499;47.494;7.608;2022-08-25T08:01:35;0.10;;;0.10;;
20679;SDS011;10499;47.494;7.608;2022-08-25T08:04:02;0.10;;;0.10;;
20679;SDS011;10499;47.494;7.608;2022-08-25T08:06:29;0.00;;;0.00;;
20679;SDS011;10499;47.494;7.608;2022-08-25T08:08:55;0.10;;;0.10;;
20679;SDS011;10499;47.494;7.608;2022-08-25T08:11:22;0.10;;;0.10;;
20679;SDS011;10499;47.494;7.608;2022-08-25T08:13:51;0.10;;;0.10;;
20679;SDS011;10499;47.494;7.608;2022-08-25T08:16:18;0.10;;;0.10;;
20679;SDS011;10499;47.494;7.608;2022-08-25T08:18:45;0.10;;;0.10;;
20679;SDS011;10499;47.494;7.608;2022-08-25T08:21:16;0.10;;;0.10;;
20679;SDS011;10499;47.494;7.608;2022-08-25T08:23:43;0.10;;;0.10;;
20679;SDS011;10499;47.494;7.608;2022-08-25T08:26:10;0.10;;;0.10;;
20679;SDS011;10499;47.494;7.608;2022-08-25T08:28:35;0.05;;;0.05;;
20679;SDS011;10499;47.494;7.608;2022-08-25T08:31:01;0.10;;;0.10;;
20679;SDS011;10499;47.494;7.608;2022-08-25T08:33:27;0.10;;;0.10;;
20679;SDS011;10499;47.494;7.608;2022-08-25T08:36:04;0.10;;;0.10;;
20679;SDS011;10499;47.494;7.608;2022-08-25T08:38:35;0.00;;;0.00;;
20679;SDS011;10499;47.494;7.608;2022-08-25T08:41:04;0.00;;;0.00;;
20679;SDS011;10499;47.494;7.608;2022-08-25T08:43:55;0.00;;;0.00;;
20679;SDS011;10499;47.494;7.608;2022-08-25T08:46:35;0.00;;;0.00;;
20679;SDS011;10499;47.494;7.608;2022-08-25T08:49:23;0.00;;;0.00;;
20679;SDS011;10499;47.494;7.608;2022-08-25T08:51:55;0.00;;;0.00;;
20679;SDS011;10499;47.494;7.608;2022-08-25T08:54:25;0.00;;;0.00;;
20679;SDS011;10499;47.494;7.608;2022-08-25T08:56:57;0.00;;;0.00;;
20679;SDS011;10499;47.494;7.608;2022-08-25T08:59:48;0.00;;;0.00;;
20679;SDS011;10499;47.494;7.608;2022-08-25T09:03:01;0.00;;;0.00;;
20679;SDS011;10499;47.494;7.608;2022-08-25T09:05:10;0.10;;;0.10;;
20679;SDS011;10499;47.494;7.608;2022-08-25T09:07:49;0.00;;;0.00;;
20679;SDS011;10499;47.494;7.608;2022-08-25T09:10:19;0.00;;;0.00;;
20679;SDS011;10499;47.494;7.608;2022-08-25T09:15:50;0.00;;;0.00;;
20679;SDS011;10499;47.494;7.608;2022-08-25T09:24:46;0.10;;;0.10;;
20679;SDS011;10499;47.494;7.608;2022-08-25T09:27:30;0.10;;;0.10;;
20679;SDS011;10499;47.494;7.608;2022-08-25T09:30:06;0.10;;;0.10;;
20679;SDS011;10499;47.494;7.608;2022-08-25T09:32:38;0.20;;;0.20;;
20679;SDS011;10499;47.494;7.608;2022-08-25T09:35:06;0.20;;;0.20;;
20679;SDS011;10499;47.494;7.608;2022-08-25T09:37:42;0.20;;;0.20;;
20679;SDS011;10499;47.494;7.608;2022-08-25T09:40:18;0.20;;;0.20;;
20679;SDS011;10499;47.494;7.608;2022-08-25T09:42:45;0.25;;;0.25;;
20679;SDS011;10499;47.494;7.608;2022-08-25T09:45:13;0.30;;;0.30;;
20679;SDS011;10499;47.494;7.608;2022-08-25T09:47:43;0.30;;;0.30;;
20679;SDS011;10499;47.494;7.608;2022-08-25T09:50:14;0.30;;;0.30;;
20679;SDS011;10499;47.494;7.608;2022-08-25T09:52:41;0.30;;;0.30;;
20679;SDS011;10499;47.494;7.608;2022-08-25T10:00:19;0.40;;;0.40;;
20679;SDS011;10499;47.494;7.608;2022-08-25T10:03:03;0.30;;;0.30;;
20679;SDS011;10499;47.494;7.608;2022-08-25T10:11:30;0.40;;;0.40;;
20679;SDS011;10499;47.494;7.608;2022-08-25T10:14:03;0.40;;;0.40;;
20679;SDS011;10499;47.494;7.608;2022-08-25T10:16:29;0.30;;;0.30;;
20679;SDS011;10499;47.494;7.608;2022-08-25T10:21:25;0.30;;;0.30;;
20679;SDS011;10499;47.494;7.608;2022-08-25T10:23:51;0.30;;;0.30;;
20679;SDS011;10499;47.494;7.608;2022-08-25T10:31:55;0.20;;;0.20;;
20679;SDS011;10499;47.494;7.608;2022-08-25T10:37:14;0.20;;;0.20;;
20679;SDS011;10499;47.494;7.608;2022-08-25T10:40:18;0.30;;;0.30;;
20679;SDS011;10499;47.494;7.608;2022-08-25T10:43:06;0.30;;;0.30;;
20679;SDS011;10499;47.494;7.608;2022-08-25T10:46:27;0.30;;;0.30;;
20679;SDS011;10499;47.494;7.608;2022-08-25T10:57:09;0.30;;;0.30;;
20679;SDS011;10499;47.494;7.608;2022-08-25T10:59:46;0.30;;;0.30;;
20679;SDS011;10499;47.494;7.608;2022-08-25T11:05:19;0.30;;;0.30;;
20679;SDS011;10499;47.494;7.608;2022-08-25T11:07:52;0.40;;;0.40;;
20679;SDS011;10499;47.494;7.608;2022-08-25T11:10:25;0.40;;;0.40;;
20679;SDS011;10499;47.494;7.608;2022-08-25T11:13:00;0.40;;;0.40;;
20679;SDS011;10499;47.494;7.608;2022-08-25T11:15:37;0.30;;;0.30;;
20679;SDS011;10499;47.494;7.608;2022-08-25T11:18:10;0.40;;;0.40;;
20679;SDS011;10499;47.494;7.608;2022-08-25T11:20:40;0.40;;;0.40;;
20679;SDS011;10499;47.494;7.608;2022-08-25T11:23:21;0.30;;;0.30;;
20679;SDS011;10499;47.494;7.608;2022-08-25T11:26:03;0.30;;;0.30;;
20679;SDS011;10499;47.494;7.608;2022-08-25T11:28:48;0.30;;;0.30;;
20679;SDS011;10499;47.494;7.608;2022-08-25T11:31:16;0.40;;;0.40;;
20679;SDS011;10499;47.494;7.608;2022-08-25T11:33:43;0.50;;;0.50;;
20679;SDS011;10499;47.494;7.608;2022-08-25T11:36:29;0.60;;;0.60;;
20679;SDS011;10499;47.494;7.608;2022-08-25T11:50:07;0.20;;;0.20;;
20679;SDS011;10499;47.494;7.608;2022-08-25T11:52:50;0.30;;;0.30;;
20679;SDS011;10499;47.494;7.608;2022-08-25T12:01:01;0.50;;;0.50;;
20679;SDS011;10499;47.494;7.608;2022-08-25T12:06:14;0.50;;;0.50;;
20679;SDS011;10499;47.494;7.608;2022-08-25T12:16:44;0.40;;;0.40;;
20679;SDS011;10499;47.494;7.608;2022-08-25T12:27:26;0.50;;;0.50;;
20679;SDS011;10499;47.494;7.608;2022-08-25T12:30:17;0.40;;;0.40;;
20679;SDS011;10499;47.494;7.608;2022-08-25T12:35:31;0.30;;;0.30;;
20679;SDS011;10499;47.494;7.608;2022-08-25T12:37:58;0.30;;;0.30;;
20679;SDS011;10499;47.494;7.608;2022-08-25T12:41:15;0.30;;;0.30;;
20679;SDS011;10499;47.494;7.608;2022-08-25T12:43:23;0.30;;;0.30;;
20679;SDS011;10499;47.494;7.608;2022-08-25T12:45:53;0.20;;;0.20;;
20679;SDS011;10499;47.494;7.608;2022-08-25T12:48:40;0.20;;;0.20;;
20679;SDS011;10499;47.494;7.608;2022-08-25T12:51:19;0.20;;;0.20;;
20679;SDS011;10499;47.494;7.608;2022-08-25T12:53:47;0.20;;;0.20;;
20679;SDS011;10499;47.494;7.608;2022-08-25T12:56:21;0.10;;;0.10;;
20679;SDS011;10499;47.494;7.608;2022-08-25T13:12:54;0.10;;;0.10;;
20679;SDS011;10499;47.494;7.608;2022-08-25T13:20:52;0.00;;;0.00;;
20679;SDS011;10499;47.494;7.608;2022-08-25T13:23:40;0.00;;;0.00;;
20679;SDS011;10499;47.494;7.608;2022-08-25T13:26:08;0.00;;;0.00;;
20679;SDS011;10499;47.494;7.608;2022-08-25T13:28:41;0.00;;;0.00;;
20679;SDS011;10499;47.494;7.608;2022-08-25T13:31:16;0.00;;;0.00;;
20679;SDS011;10499;47.494;7.608;2022-08-25T13:33:53;0.00;;;0.00;;
20679;SDS011;10499;47.494;7.608;2022-08-25T13:36:26;0.00;;;0.00;;
20679;SDS011;10499;47.494;7.608;2022-08-25T13:39:22;0.00;;;0.00;;
20679;SDS011;10499;47.494;7.608;2022-08-25T13:41:52;0.00;;;0.00;;
20679;SDS011;10499;47.494;7.608;2022-08-25T13:44:20;0.00;;;0.00;;
20679;SDS011;10499;47.494;7.608;2022-08-25T13:47:03;0.00;;;0.00;;
20679;SDS011;10499;47.494;7.608;2022-08-25T13:49:35;0.00;;;0.00;;
20679;SDS011;10499;47.494;7.608;2022-08-25T13:52:03;0.00;;;0.00;;
20679;SDS011;10499;47.494;7.608;2022-08-25T13:54:33;0.00;;;0.00;;
20679;SDS011;10499;47.494;7.608;2022-08-25T13:57:06;0.00;;;0.00;;
20679;SDS011;10499;47.494;7.608;2022-08-25T13:59:53;0.00;;;0.00;;
20679;SDS011;10499;47.494;7.608;2022-08-25T14:02:40;0.00;;;0.00;;
20679;SDS011;10499;47.494;7.608;2022-08-25T14:05:09;0.00;;;0.00;;
20679;SDS011;10499;47.494;7.608;2022-08-25T14:07:37;0.00;;;0.00;;
20679;SDS011;10499;47.494;7.608;2022-08-25T14:10:08;0.00;;;0.00;;
20679;SDS011;10499;47.494;7.608;2022-08-25T14:12:43;0.00;;;0.00;;
20679;SDS011;10499;47.494;7.608;2022-08-25T14:17:47;0.00;;;0.00;;
20679;SDS011;10499;47.494;7.608;2022-08-25T14:20:25;0.00;;;0.00;;
20679;SDS011;10499;47.494;7.608;2022-08-25T14:23:02;0.00;;;0.00;;
20679;SDS011;10499;47.494;7.608;2022-08-25T14:25:37;0.00;;;0.00;;
20679;SDS011;10499;47.494;7.608;2022-08-25T14:28:04;0.00;;;0.00;;
20679;SDS011;10499;47.494;7.608;2022-08-25T14:30:34;0.00;;;0.00;;
20679;SDS011;10499;47.494;7.608;2022-08-25T14:33:05;0.00;;;0.00;;
20679;SDS011;10499;47.494;7.608;2022-08-25T14:35:32;0.00;;;0.00;;
20679;SDS011;10499;47.494;7.608;2022-08-25T14:37:58;0.00;;;0.00;;
20679;SDS011;10499;47.494;7.608;2022-08-25T14:40:27;0.00;;;0.00;;
20679;SDS011;10499;47.494;7.608;2022-08-25T14:42:53;0.00;;;0.00;;
20679;SDS011;10499;47.494;7.608;2022-08-25T14:45:19;0.00;;;0.00;;
20679;SDS011;10499;47.494;7.608;2022-08-25T14:47:45;0.00;;;0.00;;
20679;SDS011;10499;47.494;7.608;2022-08-25T14:50:11;0.00;;;0.00;;
20679;SDS011;10499;47.494;7.608;2022-08-25T14:52:39;0.00;;;0.00;;
20679;SDS011;10499;47.494;7.608;2022-08-25T14:55:06;0.00;;;0.00;;
20679;SDS011;10499;47.494;7.608;2022-08-25T14:57:33;0.00;;;0.00;;
20679;SDS011;10499;47.494;7.608;2022-08-25T14:59:59;0.00;;;0.00;;
20679;SDS011;10499;47.494;7.608;2022-08-25T15:02:25;0.00;;;0.00;;
20679;SDS011;10499;47.494;7.608;2022-08-25T15:04:54;0.00;;;0.00;;
20679;SDS011;10499;47.494;7.608;2022-08-25T15:07:22;0.00;;;0.00;;
20679;SDS011;10499;47.494;7.608;2022-08-25T15:10:07;0.00;;;0.00;;
20679;SDS011;10499;47.494;7.608;2022-08-25T15:12:33;0.00;;;0.00;;
20679;SDS011;10499;47.494;7.608;2022-08-25T15:15:00;0.00;;;0.00;;
20679;SDS011;10499;47.494;7.608;2022-08-25T15:17:27;0.00;;;0.00;;
20679;SDS011;10499;47.494;7.608;2022-08-25T15:19:53;0.00;;;0.00;;
20679;SDS011;10499;47.494;7.608;2022-08-25T15:22:18;0.00;;;0.00;;
20679;SDS011;10499;47.494;7.608;2022-08-25T15:24:44;0.00;;;0.00;;
20679;SDS011;10499;47.494;7.608;2022-08-25T15:27:10;0.00;;;0.00;;
20679;SDS011;10499;47.494;7.608;2022-08-25T15:29:37;0.00;;;0.00;;
20679;SDS011;10499;47.494;7.608;2022-08-25T15:32:07;0.00;;;0.00;;
20679;SDS011;10499;47.494;7.608;2022-08-25T15:34:33;0.00;;;0.00;;
20679;SDS011;10499;47.494;7.608;2022-08-25T15:37:05;0.00;;;0.00;;
20679;SDS011;10499;47.494;7.608;2022-08-25T15:39:35;0.00;;;0.00;;
20679;SDS011;10499;47.494;7.608;2022-08-25T15:42:02;0.00;;;0.00;;
20679;SDS011;10499;47.494;7.608;2022-08-25T15:44:29;0.00;;;0.00;;
20679;SDS011;10499;47.494;7.608;2022-08-25T15:46:55;0.00;;;0.00;;
20679;SDS011;10499;47.494;7.608;2022-08-25T15:49:22;0.00;;;0.00;;
20679;SDS011;10499;47.494;7.608;2022-08-25T15:51:48;0.00;;;0.00;;
20679;SDS011;10499;47.494;7.608;2022-08-25T15:54:14;0.00;;;0.00;;
20679;SDS011;10499;47.494;7.608;2022-08-25T15:56:40;0.00;;;0.00;;
20679;SDS011;10499;47.494;7.608;2022-08-25T15:59:07;0.00;;;0.00;;
20679;SDS011;10499;47.494;7.608;2022-08-25T16:01:33;0.00;;;0.00;;
20679;SDS011;10499;47.494;7.608;2022-08-25T16:03:59;0.00;;;0.00;;
20679;SDS011;10499;47.494;7.608;2022-08-25T16:06:25;0.00;;;0.00;;
20679;SDS011;10499;47.494;7.608;2022-08-25T16:08:51;0.00;;;0.00;;
20679;SDS011;10499;47.494;7.608;2022-08-25T16:11:18;0.00;;;0.00;;
20679;SDS011;10499;47.494;7.608;2022-08-25T16:13:49;0.00;;;0.00;;
20679;SDS011;10499;47.494;7.608;2022-08-25T16:16:16;0.00;;;0.00;;
20679;SDS011;10499;47.494;7.608;2022-08-25T16:18:43;0.00;;;0.00;;
20679;SDS011;10499;47.494;7.608;2022-08-25T16:21:10;0.00;;;0.00;;
20679;SDS011;10499;47.494;7.608;2022-08-25T16:23:37;0.00;;;0.00;;
20679;SDS011;10499;47.494;7.608;2022-08-25T16:26:04;0.00;;;0.00;;
20679;SDS011;10499;47.494;7.608;2022-08-25T16:28:32;0.00;;;0.00;;
20679;SDS011;10499;47.494;7.608;2022-08-25T16:31:01;0.00;;;0.00;;
20679;SDS011;10499;47.494;7.608;2022-08-25T16:33:27;0.00;;;0.00;;
20679;SDS011;10499;47.494;7.608;2022-08-25T16:36:02;0.00;;;0.00;;
20679;SDS011;10499;47.494;7.608;2022-08-25T16:38:32;0.00;;;0.00;;
20679;SDS011;10499;47.494;7.608;2022-08-25T16:40:58;0.00;;;0.00;;
20679;SDS011;10499;47.494;7.608;2022-08-25T16:43:24;0.00;;;0.00;;
20679;SDS011;10499;47.494;7.608;2022-08-25T16:46:00;0.00;;;0.00;;
20679;SDS011;10499;47.494;7.608;2022-08-25T16:48:28;0.00;;;0.00;;
20679;SDS011;10499;47.494;7.608;2022-08-25T16:50:54;0.00;;;0.00;;